Time;durP1;ratioP1;P1;durP2;ratioP2;P2;SDS_P1;SDS_P2;PMS_P1;PMS_P2;Temp;Humidity;BMP_temperature;BMP_pressure;BME280_temperature;BME280_humidity;BME280_pressure;Samples;Min_cycle;Max_cycle;Signal;HPM_P1;HPM_P2
2022/05/09 00:01:35;;;;;;;20.65;5.03;;;6.40;99.90;;;;;;4952909;28;20613;-64
2022/05/09 00:04:00;;;;;;;14.13;4.97;;;6.40;99.90;;;;;;4932639;29;20410;-64
2022/05/09 00:06:26;;;;;;;17.17;6.10;;;6.40;99.90;;;;;;4934177;29;20039;-64
2022/05/09 00:08:52;;;;;;;11.90;5.03;;;6.50;99.90;;;;;;4935239;29;20040;-64
2022/05/09 00:11:17;;;;;;;16.73;5.32;;;6.50;99.90;;;;;;4947272;29;20031;-64
2022/05/09 00:13:43;;;;;;;15.90;5.55;;;6.60;99.90;;;;;;4953046;28;20490;-64
2022/05/09 00:16:09;;;;;;;20.88;6.50;;;6.70;99.90;;;;;;4947674;28;20446;-64
2022/05/09 00:18:35;;;;;;;11.85;5.57;;;6.60;99.90;;;;;;4949489;29;20135;-64
2022/05/09 00:21:01;;;;;;;17.27;5.03;;;6.70;99.90;;;;;;4953152;28;20098;-64
2022/05/09 00:23:26;;;;;;;17.42;5.65;;;6.60;99.90;;;;;;4945237;28;20047;-64
2022/05/09 00:25:52;;;;;;;15.10;4.90;;;6.50;99.90;;;;;;4947654;29;20039;-64
2022/05/09 00:28:18;;;;;;;11.32;4.95;;;6.30;99.90;;;;;;4952687;28;20071;-63
2022/05/09 00:30:44;;;;;;;15.52;4.90;;;6.20;99.90;;;;;;4949337;28;20042;-63
2022/05/09 00:33:09;;;;;;;9.25;4.22;;;6.10;99.90;;;;;;4943633;29;20035;-64
2022/05/09 00:35:37;;;;;;;10.48;4.47;;;5.90;99.90;;;;;;4953013;29;20134;-63
2022/05/09 00:38:03;;;;;;;13.00;5.03;;;5.70;99.90;;;;;;4956218;28;20397;-63
2022/05/09 00:40:29;;;;;;;17.90;5.03;;;5.50;99.90;;;;;;4953841;28;20042;-63
2022/05/09 00:42:55;;;;;;;10.05;4.28;;;5.50;99.90;;;;;;4955043;29;20032;-63
2022/05/09 00:45:23;;;;;;;13.68;4.63;;;5.60;99.90;;;;;;4956159;28;20031;-63
2022/05/09 00:47:49;;;;;;;13.65;5.28;;;5.50;99.90;;;;;;4948201;29;20082;-64
2022/05/09 00:50:23;;;;;;;14.85;4.80;;;5.60;99.90;;;;;;4946987;29;20489;-63
2022/05/09 00:53:01;;;;;;;15.30;4.93;;;5.60;99.90;;;;;;4956084;28;20035;-64
2022/05/09 00:55:41;;;;;;;12.02;4.95;;;5.60;99.90;;;;;;4948250;29;20116;-64
2022/05/09 00:58:23;;;;;;;8.80;4.43;;;5.70;99.90;;;;;;4943658;28;20526;-64
2022/05/09 01:00:51;;;;;;;9.75;4.38;;;5.60;99.90;;;;;;4955643;28;20447;-64
2022/05/09 01:03:28;;;;;;;9.82;4.78;;;5.50;99.90;;;;;;4953901;28;20043;-64
2022/05/09 01:05:53;;;;;;;8.82;4.57;;;5.40;99.90;;;;;;4941093;29;20118;-64
2022/05/09 01:08:21;;;;;;;11.75;5.30;;;5.30;99.90;;;;;;4950490;28;20131;-64
2022/05/09 01:10:47;;;;;;;11.27;4.72;;;5.30;99.90;;;;;;4955983;28;20474;-64
2022/05/09 01:13:15;;;;;;;12.10;4.78;;;5.30;99.90;;;;;;4943802;28;20035;-63
2022/05/09 01:15:43;;;;;;;12.05;5.13;;;5.30;99.90;;;;;;4949706;29;20051;-63
2022/05/09 01:18:11;;;;;;;13.23;5.15;;;5.20;99.90;;;;;;4955821;28;20089;-63
2022/05/09 01:20:37;;;;;;;16.98;5.22;;;5.20;99.90;;;;;;4952979;28;20414;-64
2022/05/09 01:23:03;;;;;;;8.55;4.75;;;5.10;99.90;;;;;;4943825;29;20043;-63
2022/05/09 01:25:29;;;;;;;15.40;5.35;;;5.00;99.90;;;;;;4951286;29;20490;-64
2022/05/09 01:27:55;;;;;;;10.70;4.72;;;5.00;99.90;;;;;;4953967;28;20051;-64
2022/05/09 01:30:26;;;;;;;11.50;4.70;;;5.00;99.90;;;;;;4951373;29;20040;-64
2022/05/09 01:32:56;;;;;;;14.38;5.25;;;4.90;99.90;;;;;;4954308;28;20501;-63
2022/05/09 01:35:45;;;;;;;10.50;4.47;;;4.80;99.90;;;;;;4954156;29;20505;-64
2022/05/09 01:38:22;;;;;;;10.85;4.50;;;4.60;99.90;;;;;;4946884;29;20510;-64
2022/05/09 01:40:47;;;;;;;15.52;4.88;;;4.40;99.90;;;;;;4949584;29;20043;-64
2022/05/09 01:43:13;;;;;;;11.02;5.00;;;4.30;99.90;;;;;;4954558;28;20042;-64
2022/05/09 01:45:38;;;;;;;13.63;5.22;;;4.10;99.90;;;;;;4955129;28;20046;-64
2022/05/09 01:50:49;;;;;;;13.85;5.35;;;4.20;99.90;;;;;;4953426;29;20043;-63
2022/05/09 01:53:15;;;;;;;13.98;5.35;;;4.30;99.90;;;;;;4955320;28;20035;-64
2022/05/09 01:55:41;;;;;;;13.85;4.95;;;4.30;99.90;;;;;;4946274;28;20067;-64
2022/05/09 01:58:06;;;;;;;13.15;5.40;;;4.40;99.90;;;;;;4953651;29;20042;-64
2022/05/09 02:00:35;;;;;;;11.32;5.30;;;4.40;99.90;;;;;;4955135;29;20047;-64
2022/05/09 02:03:01;;;;;;;13.35;4.82;;;4.40;99.90;;;;;;4950761;28;20544;-64
2022/05/09 02:05:26;;;;;;;13.88;5.50;;;4.40;99.90;;;;;;4954073;29;20027;-64
2022/05/09 02:07:53;;;;;;;13.73;5.93;;;4.40;99.90;;;;;;4954609;28;20521;-64
2022/05/09 02:10:19;;;;;;;16.45;6.43;;;4.40;99.90;;;;;;4951272;28;20038;-64
2022/05/09 02:12:45;;;;;;;12.40;5.43;;;4.40;99.90;;;;;;4947547;28;20039;-64
2022/05/09 02:15:10;;;;;;;16.52;5.38;;;4.40;99.90;;;;;;4954541;29;20410;-64
2022/05/09 02:17:37;;;;;;;12.75;5.63;;;4.50;99.90;;;;;;4954733;28;20054;-64
2022/05/09 02:20:05;;;;;;;11.20;5.38;;;4.50;99.90;;;;;;4949943;28;20039;-64
2022/05/09 02:22:32;;;;;;;14.93;6.15;;;4.50;99.90;;;;;;4950865;28;20050;-64
2022/05/09 02:24:58;;;;;;;15.45;5.68;;;4.50;99.90;;;;;;4954301;28;20041;-64
2022/05/09 02:27:24;;;;;;;12.43;5.35;;;4.50;99.90;;;;;;4950903;28;20462;-64
2022/05/09 02:29:50;;;;;;;20.23;6.13;;;4.50;99.90;;;;;;4942647;29;20119;-64
2022/05/09 02:32:16;;;;;;;12.85;6.32;;;4.50;99.90;;;;;;4954225;28;20118;-64
2022/05/09 02:34:42;;;;;;;12.20;5.78;;;4.50;99.90;;;;;;4954078;28;20047;-64
2022/05/09 02:37:08;;;;;;;14.90;5.22;;;4.50;99.90;;;;;;4944043;28;20043;-64
2022/05/09 02:39:34;;;;;;;14.68;5.75;;;4.40;99.90;;;;;;4947251;28;20050;-64
2022/05/09 02:42:00;;;;;;;16.13;5.63;;;4.40;99.90;;;;;;4954195;28;20066;-64
2022/05/09 02:44:27;;;;;;;12.35;5.20;;;4.50;99.90;;;;;;4947243;28;20131;-64
2022/05/09 02:46:53;;;;;;;18.02;6.03;;;4.50;99.90;;;;;;4943071;28;20047;-64
2022/05/09 02:49:19;;;;;;;14.05;5.85;;;4.40;99.90;;;;;;4953376;28;20043;-64
2022/05/09 02:51:46;;;;;;;18.20;6.20;;;4.40;99.90;;;;;;4954562;28;20090;-64
2022/05/09 02:54:12;;;;;;;12.48;5.32;;;4.40;99.90;;;;;;4949877;28;20127;-64
2022/05/09 02:56:37;;;;;;;13.20;5.93;;;4.30;99.90;;;;;;4944079;29;20468;-64
2022/05/09 02:59:03;;;;;;;12.90;5.38;;;4.30;99.90;;;;;;4953815;28;20039;-64
2022/05/09 03:01:28;;;;;;;13.93;5.85;;;4.30;99.90;;;;;;4943761;28;20035;-64
2022/05/09 03:06:38;;;;;;;12.00;5.40;;;4.30;99.90;;;;;;4953290;28;20043;-64
2022/05/09 03:09:04;;;;;;;11.23;5.90;;;4.20;99.90;;;;;;4953278;28;20375;-63
2022/05/09 03:11:30;;;;;;;11.60;6.28;;;4.20;99.90;;;;;;4947424;29;20397;-63
2022/05/09 03:13:56;;;;;;;13.02;6.32;;;4.20;99.90;;;;;;4951789;29;20126;-64
2022/05/09 03:16:22;;;;;;;11.52;5.53;;;4.20;99.90;;;;;;4953606;28;20070;-64
2022/05/09 03:18:48;;;;;;;18.58;5.90;;;4.20;99.90;;;;;;4948396;28;20054;-64
2022/05/09 03:21:13;;;;;;;25.58;7.25;;;4.10;99.90;;;;;;4953443;28;20039;-64
2022/05/09 03:23:39;;;;;;;12.35;6.20;;;4.00;99.90;;;;;;4946631;28;20450;-64
2022/05/09 03:26:04;;;;;;;20.45;7.05;;;4.00;99.90;;;;;;4952612;28;20118;-64
2022/05/09 03:28:30;;;;;;;10.68;6.05;;;4.00;99.90;;;;;;4952955;28;20142;-64
2022/05/09 03:30:57;;;;;;;11.38;6.55;;;4.00;99.90;;;;;;4952549;29;20057;-64
2022/05/09 03:33:26;;;;;;;14.90;6.78;;;3.90;99.90;;;;;;4943894;28;20065;-64
2022/05/09 03:35:53;;;;;;;14.23;6.80;;;4.00;99.90;;;;;;4937982;29;20043;-64
2022/05/09 03:38:18;;;;;;;16.90;7.43;;;4.00;99.90;;;;;;4952958;28;20039;-64
2022/05/09 03:40:44;;;;;;;14.23;6.43;;;4.10;99.90;;;;;;4953280;28;20042;-64
2022/05/09 03:43:11;;;;;;;10.88;5.93;;;4.10;99.90;;;;;;4949151;29;20047;-64
2022/05/09 03:45:40;;;;;;;11.07;5.43;;;4.20;99.90;;;;;;4938202;29;20036;-64
2022/05/09 03:48:06;;;;;;;13.90;6.53;;;4.10;99.90;;;;;;4952929;28;20066;-64
2022/05/09 03:50:31;;;;;;;16.00;6.07;;;4.10;99.90;;;;;;4952522;28;20457;-64
2022/05/09 03:52:57;;;;;;;114.15;6.32;;;4.20;99.90;;;;;;4940279;29;20031;-64
2022/05/09 03:55:23;;;;;;;15.98;4.63;;;4.10;99.90;;;;;;4943966;29;20421;-64
2022/05/09 03:57:54;;;;;;;9.20;5.00;;;4.10;99.90;;;;;;4951565;28;20054;-64
2022/05/09 04:00:24;;;;;;;19.70;5.55;;;4.10;99.90;;;;;;4952503;29;20170;-64
2022/05/09 04:02:49;;;;;;;9.25;5.82;;;4.10;99.90;;;;;;4947804;29;20427;-64
2022/05/09 04:05:17;;;;;;;10.32;5.90;;;4.10;99.90;;;;;;4951352;29;20039;-64
2022/05/09 04:07:44;;;;;;;17.63;7.25;;;4.10;99.90;;;;;;4949744;28;20463;-64
2022/05/09 04:10:12;;;;;;;16.90;7.72;;;4.10;99.90;;;;;;4944369;29;20114;-64
2022/05/09 04:12:39;;;;;;;16.88;7.00;;;4.00;99.90;;;;;;4949153;29;20059;-64
2022/05/09 04:17:49;;;;;;;15.10;7.28;;;4.00;99.90;;;;;;4951382;28;20059;-64
2022/05/09 04:20:14;;;;;;;17.20;7.78;;;4.00;99.90;;;;;;4955350;28;20039;-64
2022/05/09 04:22:40;;;;;;;16.20;6.95;;;4.00;99.90;;;;;;4956634;28;20043;-64
2022/05/09 04:25:06;;;;;;;13.50;7.22;;;4.00;99.90;;;;;;4946468;28;20042;-64
2022/05/09 04:27:32;;;;;;;16.30;7.10;;;4.10;99.90;;;;;;4950420;29;20043;-64
2022/05/09 04:29:58;;;;;;;18.00;7.45;;;4.10;99.90;;;;;;4945751;28;20065;-64
2022/05/09 04:32:24;;;;;;;16.42;7.57;;;4.20;99.90;;;;;;4941296;29;20032;-64
2022/05/09 04:34:50;;;;;;;16.05;6.88;;;4.20;99.90;;;;;;4954643;29;20054;-64
2022/05/09 04:37:15;;;;;;;14.60;8.13;;;4.10;99.90;;;;;;4956321;28;20039;-64
2022/05/09 04:39:41;;;;;;;18.92;7.88;;;4.10;99.90;;;;;;4945197;28;20111;-64
2022/05/09 04:42:08;;;;;;;15.45;7.97;;;4.10;99.90;;;;;;4945881;28;20118;-64
2022/05/09 04:44:33;;;;;;;17.95;7.95;;;4.10;99.90;;;;;;4948303;28;20046;-64
2022/05/09 04:46:59;;;;;;;22.15;9.93;;;4.20;99.90;;;;;;4955747;28;20039;-64
2022/05/09 04:49:25;;;;;;;26.90;8.52;;;4.30;99.90;;;;;;4955772;29;20039;-64
2022/05/09 04:51:50;;;;;;;27.17;9.27;;;4.50;99.90;;;;;;4946331;29;20126;-63
2022/05/09 04:54:16;;;;;;;22.20;9.00;;;4.70;99.90;;;;;;4949414;29;20039;-64
2022/05/09 04:56:41;;;;;;;18.00;9.30;;;4.80;99.90;;;;;;4952899;29;20047;-63
2022/05/09 04:59:08;;;;;;;27.63;9.73;;;4.90;99.90;;;;;;4939119;29;20039;-64
2022/05/09 05:01:33;;;;;;;18.25;7.82;;;5.00;99.90;;;;;;4936649;28;20075;-64
2022/05/09 05:04:00;;;;;;;17.15;8.77;;;5.00;99.90;;;;;;4949011;29;20071;-63
2022/05/09 05:06:25;;;;;;;23.75;8.23;;;5.10;99.90;;;;;;4941339;29;20039;-63
2022/05/09 05:08:51;;;;;;;20.45;8.00;;;5.20;99.90;;;;;;4951517;29;20054;-64
2022/05/09 05:11:16;;;;;;;22.33;8.63;;;5.30;99.90;;;;;;4952514;28;20039;-64
2022/05/09 05:13:42;;;;;;;22.55;8.82;;;5.40;99.90;;;;;;4939487;28;20446;-63
2022/05/09 05:16:07;;;;;;;19.80;8.20;;;5.40;99.90;;;;;;4936934;28;20501;-64
2022/05/09 05:18:34;;;;;;;15.18;9.10;;;5.50;99.90;;;;;;4948116;28;20540;-63
2022/05/09 05:21:07;;;;;;;18.80;8.40;;;5.60;99.90;;;;;;4951804;28;20047;-64
2022/05/09 05:23:33;;;;;;;22.40;9.15;;;5.70;99.90;;;;;;4942673;28;20739;-64
2022/05/09 05:26:00;;;;;;;24.27;9.98;;;5.90;99.90;;;;;;4939758;28;20047;-63
2022/05/09 05:28:26;;;;;;;21.20;9.82;;;6.10;99.90;;;;;;4946268;29;20043;-65
2022/05/09 05:30:53;;;;;;;26.73;11.32;;;6.20;99.90;;;;;;4946885;29;20035;-64
2022/05/09 05:33:20;;;;;;;28.90;10.52;;;6.40;99.90;;;;;;4939204;29;20537;-64
2022/05/09 05:35:46;;;;;;;30.70;11.27;;;6.60;99.90;;;;;;4949350;29;20035;-64
2022/05/09 05:38:11;;;;;;;24.65;10.45;;;6.80;99.90;;;;;;4952326;28;20047;-65
2022/05/09 05:40:37;;;;;;;27.27;11.05;;;6.90;99.90;;;;;;4942566;29;20039;-64
2022/05/09 05:43:02;;;;;;;28.48;10.40;;;7.10;99.90;;;;;;4932502;29;20130;-64
2022/05/09 05:45:28;;;;;;;23.60;10.80;;;7.20;99.90;;;;;;4946699;29;20046;-64
2022/05/09 05:47:54;;;;;;;31.20;10.40;;;7.30;99.90;;;;;;4945991;28;20043;-64
2022/05/09 05:50:22;;;;;;;27.60;10.90;;;7.50;99.90;;;;;;4950511;28;20151;-64
2022/05/09 05:52:48;;;;;;;27.85;11.55;;;7.60;99.90;;;;;;4950341;28;20081;-64
2022/05/09 05:55:14;;;;;;;29.52;10.35;;;7.70;99.90;;;;;;4944884;29;20570;-64
2022/05/09 05:57:42;;;;;;;24.42;10.70;;;7.80;99.90;;;;;;4947716;29;20035;-64
2022/05/09 06:00:19;;;;;;;28.50;10.32;;;7.90;99.90;;;;;;4950080;29;20493;-64
2022/05/09 06:02:45;;;;;;;27.65;10.65;;;8.00;99.90;;;;;;4951581;28;20050;-64
2022/05/09 06:05:13;;;;;;;25.27;10.45;;;8.20;99.90;;;;;;4929709;29;20514;-64
2022/05/09 06:07:40;;;;;;;28.60;11.02;;;8.30;99.90;;;;;;4933875;29;20036;-64
2022/05/09 06:10:07;;;;;;;30.55;11.25;;;8.30;99.90;;;;;;4949447;28;20494;-64
2022/05/09 06:12:33;;;;;;;28.38;10.77;;;8.40;99.90;;;;;;4947066;29;20127;-64
2022/05/09 06:17:43;;;;;;;26.50;11.15;;;8.70;99.90;;;;;;4947926;29;20501;-65
2022/05/09 06:20:11;;;;;;;27.00;9.90;;;8.80;99.90;;;;;;4937461;28;20044;-64
2022/05/09 06:22:38;;;;;;;25.70;10.60;;;9.00;99.90;;;;;;4938689;29;20056;-64
2022/05/09 06:25:06;;;;;;;26.92;10.77;;;9.10;99.90;;;;;;4949730;28;20047;-64
2022/05/09 06:27:32;;;;;;;24.55;10.30;;;9.30;99.90;;;;;;4950794;28;20055;-64
2022/05/09 06:30:00;;;;;;;24.40;10.77;;;9.40;99.90;;;;;;4944639;28;20580;-64
2022/05/09 06:32:26;;;;;;;22.63;10.15;;;9.50;99.90;;;;;;4933388;29;20051;-64
2022/05/09 06:34:52;;;;;;;24.52;9.90;;;9.60;99.90;;;;;;4947736;29;20039;-64
2022/05/09 06:37:18;;;;;;;26.60;9.90;;;9.70;99.90;;;;;;4947739;28;20047;-64
2022/05/09 06:39:44;;;;;;;20.85;10.13;;;9.80;99.90;;;;;;4946719;28;20047;-64
2022/05/09 06:42:10;;;;;;;21.08;9.60;;;9.90;99.90;;;;;;4950187;28;20418;-64
2022/05/09 06:44:36;;;;;;;22.52;10.63;;;9.90;99.90;;;;;;4949480;28;20043;-64
2022/05/09 06:47:03;;;;;;;22.13;9.05;;;10.10;99.90;;;;;;4938811;29;20043;-64
2022/05/09 06:49:30;;;;;;;24.60;10.15;;;10.10;99.90;;;;;;4939163;29;20086;-64
2022/05/09 06:51:56;;;;;;;24.67;9.77;;;10.30;99.90;;;;;;4941173;28;20097;-64
2022/05/09 06:54:22;;;;;;;25.80;9.63;;;10.40;99.90;;;;;;4942135;29;20066;-65
2022/05/09 06:56:48;;;;;;;21.67;9.55;;;10.50;99.90;;;;;;4935669;29;20082;-64
2022/05/09 06:59:14;;;;;;;23.50;9.55;;;10.60;99.90;;;;;;4948273;28;20039;-64
2022/05/09 07:01:40;;;;;;;20.65;9.35;;;10.70;99.90;;;;;;4945471;29;20093;-64
2022/05/09 07:04:05;;;;;;;21.92;9.48;;;10.90;99.90;;;;;;4947885;29;20047;-65
2022/05/09 07:06:31;;;;;;;19.25;9.60;;;11.10;99.90;;;;;;4935922;29;20036;-65
2022/05/09 07:08:56;;;;;;;24.83;9.35;;;11.10;99.90;;;;;;4943440;28;20130;-64
2022/05/09 07:11:22;;;;;;;21.45;9.38;;;11.30;99.90;;;;;;4941819;28;20045;-65
2022/05/09 07:13:48;;;;;;;21.20;8.80;;;11.40;99.90;;;;;;4934910;29;20549;-65
2022/05/09 07:16:14;;;;;;;24.83;9.07;;;11.60;99.90;;;;;;4934332;28;20281;-65
2022/05/09 07:18:41;;;;;;;18.30;8.63;;;11.70;99.90;;;;;;4934835;28;20067;-64
2022/05/09 07:21:07;;;;;;;20.40;8.75;;;11.90;99.90;;;;;;4948517;28;20051;-64
2022/05/09 07:23:33;;;;;;;23.77;9.38;;;11.90;99.90;;;;;;4948681;28;20045;-64
2022/05/09 07:26:00;;;;;;;20.05;8.93;;;12.00;99.90;;;;;;4942205;28;20063;-65
2022/05/09 07:28:28;;;;;;;22.35;9.23;;;12.10;99.90;;;;;;4932242;29;20048;-65
2022/05/09 07:30:54;;;;;;;21.70;8.73;;;12.10;99.90;;;;;;4948635;28;20054;-64
2022/05/09 07:33:20;;;;;;;22.63;8.98;;;12.30;99.90;;;;;;4948575;28;20050;-64
2022/05/09 07:35:47;;;;;;;20.40;9.20;;;12.40;99.90;;;;;;4950144;28;20070;-64
2022/05/09 07:38:13;;;;;;;19.35;9.30;;;12.50;99.90;;;;;;4939495;28;20058;-64
2022/05/09 07:40:40;;;;;;;20.98;9.50;;;12.60;99.90;;;;;;4947888;28;20043;-64
2022/05/09 07:43:17;;;;;;;21.27;8.75;;;12.70;99.90;;;;;;4944619;28;20669;-65
2022/05/09 07:45:43;;;;;;;19.88;8.88;;;12.80;99.90;;;;;;4930963;29;20380;-64
2022/05/09 07:48:09;;;;;;;20.65;9.10;;;12.80;99.90;;;;;;4936145;28;20050;-64
2022/05/09 07:50:36;;;;;;;21.77;9.18;;;12.80;99.90;;;;;;4947864;28;20031;-64
2022/05/09 07:53:12;;;;;;;21.88;9.02;;;12.90;99.90;;;;;;4949493;28;20050;-64
2022/05/09 07:55:40;;;;;;;15.70;8.98;;;13.00;99.90;;;;;;4943907;28;20202;-65
2022/05/09 07:58:05;;;;;;;23.65;9.00;;;13.20;99.90;;;;;;4945445;29;20047;-64
2022/05/09 08:00:31;;;;;;;22.40;9.27;;;13.20;99.90;;;;;;4949142;29;20039;-64
2022/05/09 08:02:57;;;;;;;29.80;9.98;;;13.30;99.90;;;;;;4936899;28;20488;-64
2022/05/09 08:05:23;;;;;;;18.17;8.95;;;13.30;99.90;;;;;;4948394;29;20470;-64
2022/05/09 08:07:49;;;;;;;19.25;8.57;;;13.30;99.90;;;;;;4948064;28;20494;-64
2022/05/09 08:10:16;;;;;;;18.48;8.07;;;13.40;99.90;;;;;;4939227;29;20035;-64
2022/05/09 08:12:41;;;;;;;20.25;7.97;;;13.50;99.90;;;;;;4944838;29;20118;-64
2022/05/09 08:15:09;;;;;;;18.88;8.73;;;13.60;99.90;;;;;;4941834;28;20044;-65
2022/05/09 08:17:34;;;;;;;20.58;8.40;;;13.60;99.90;;;;;;4938723;29;20051;-63
2022/05/09 08:20:00;;;;;;;19.90;8.15;;;13.80;99.90;;;;;;4937888;28;20047;-63
2022/05/09 08:22:28;;;;;;;19.42;7.93;;;13.90;99.90;;;;;;4944330;29;20118;-63
2022/05/09 08:25:00;;;;;;;21.95;7.90;;;14.00;99.90;;;;;;4946913;29;20047;-63
2022/05/09 08:27:26;;;;;;;23.75;8.55;;;14.10;99.90;;;;;;4933413;29;20577;-63
2022/05/09 08:29:56;;;;;;;19.50;8.57;;;14.20;99.90;;;;;;4939022;29;20047;-63
2022/05/09 08:32:23;;;;;;;18.67;7.78;;;14.30;99.90;;;;;;4946875;29;20677;-63
2022/05/09 08:34:51;;;;;;;14.88;7.35;;;14.30;99.90;;;;;;4939095;29;20291;-63
2022/05/09 08:37:20;;;;;;;21.00;8.95;;;14.40;99.90;;;;;;4942091;29;20035;-63
2022/05/09 08:39:46;;;;;;;16.35;8.25;;;14.50;99.90;;;;;;4947206;28;20035;-64
2022/05/09 08:42:29;;;;;;;18.95;8.13;;;14.60;99.90;;;;;;4947815;28;20039;-64
2022/05/09 08:45:24;;;;;;;21.23;7.53;;;14.60;99.90;;;;;;4941983;29;20043;-63
2022/05/09 08:48:01;;;;;;;14.98;6.82;;;14.70;99.90;;;;;;4948104;28;20055;-63
2022/05/09 08:50:34;;;;;;;17.77;6.97;;;14.90;99.90;;;;;;4946662;29;20047;-64
2022/05/09 08:53:07;;;;;;;18.85;6.82;;;15.00;99.90;;;;;;4942722;28;20039;-63
2022/05/09 08:55:37;;;;;;;20.55;7.78;;;15.10;99.90;;;;;;4947034;29;20043;-64
2022/05/09 08:58:41;;;;;;;17.53;7.30;;;15.20;99.90;;;;;;4942569;28;20406;-63
2022/05/09 09:01:17;;;;;;;16.10;6.63;;;15.20;99.90;;;;;;4931941;28;20055;-63
2022/05/09 09:03:59;;;;;;;13.35;6.05;;;15.30;99.90;;;;;;4942300;29;20130;-64
2022/05/09 09:06:36;;;;;;;15.18;6.15;;;15.50;99.90;;;;;;4946680;29;20043;-64
2022/05/09 09:09:17;;;;;;;12.25;5.50;;;15.70;99.90;;;;;;4942025;28;20474;-64
2022/05/09 09:12:01;;;;;;;17.10;5.80;;;15.80;99.90;;;;;;4937885;28;20083;-63
2022/05/09 09:14:36;;;;;;;14.77;5.60;;;15.90;99.90;;;;;;4940318;28;20130;-64
2022/05/09 09:17:29;;;;;;;12.52;6.30;;;16.10;99.90;;;;;;4938706;28;20479;-64
2022/05/09 09:20:07;;;;;;;23.05;6.38;;;16.20;99.90;;;;;;4939595;29;20335;-63
2022/05/09 09:22:50;;;;;;;14.18;6.40;;;16.20;99.20;;;;;;4943350;29;20494;-64
2022/05/09 09:25:38;;;;;;;13.68;6.07;;;16.30;99.10;;;;;;4930692;29;20043;-64
2022/05/09 09:28:08;;;;;;;15.40;5.80;;;16.40;99.90;;;;;;4945240;29;20054;-64
2022/05/09 09:30:35;;;;;;;13.63;5.93;;;16.60;99.90;;;;;;4947054;29;20558;-64
2022/05/09 09:33:05;;;;;;;11.02;5.00;;;16.70;99.80;;;;;;4949049;28;20497;-64
2022/05/09 09:35:42;;;;;;;14.05;4.57;;;16.90;99.10;;;;;;4941675;28;20083;-64
2022/05/09 09:38:13;;;;;;;14.60;5.25;;;17.10;98.00;;;;;;4948411;29;20130;-64
2022/05/09 09:40:39;;;;;;;11.65;4.82;;;17.40;92.30;;;;;;4943792;28;20035;-63
2022/05/09 09:43:05;;;;;;;18.83;6.68;;;17.40;97.90;;;;;;4936684;29;20409;-64
2022/05/09 09:45:40;;;;;;;15.02;6.00;;;17.60;98.30;;;;;;4949866;29;20402;-64
2022/05/09 09:48:17;;;;;;;16.35;5.47;;;17.80;96.20;;;;;;4950294;28;20083;-64
2022/05/09 09:51:04;;;;;;;15.98;5.30;;;18.00;96.20;;;;;;4944942;28;20046;-64
2022/05/09 09:53:40;;;;;;;10.32;5.07;;;18.10;93.80;;;;;;4943096;29;20048;-64
2022/05/09 09:56:27;;;;;;;16.67;5.35;;;18.40;95.20;;;;;;4942844;29;20110;-64
2022/05/09 09:58:58;;;;;;;14.82;5.78;;;18.60;92.60;;;;;;4938032;28;20095;-64
2022/05/09 10:01:28;;;;;;;16.73;5.85;;;18.70;96.70;;;;;;4949038;28;20054;-64
2022/05/09 10:04:27;;;;;;;11.25;5.00;;;18.80;95.70;;;;;;4949174;28;20049;-64
2022/05/09 10:06:59;;;;;;;15.60;5.55;;;19.00;93.50;;;;;;4947402;28;20050;-64
2022/05/09 10:09:43;;;;;;;15.52;5.28;;;19.10;94.20;;;;;;4937369;29;20078;-64
2022/05/09 10:12:22;;;;;;;13.55;5.35;;;19.00;94.70;;;;;;4942864;29;20043;-64
2022/05/09 10:14:49;;;;;;;11.65;5.10;;;19.20;91.80;;;;;;4940119;28;20039;-64
2022/05/09 10:17:26;;;;;;;13.80;4.88;;;19.30;95.80;;;;;;4947226;28;20514;-64
2022/05/09 10:19:53;;;;;;;13.93;5.15;;;19.30;94.50;;;;;;4950724;28;20043;-64
2022/05/09 10:25:16;;;;;;;11.60;4.78;;;19.40;83.30;;;;;;4934641;29;20043;-64
2022/05/09 10:27:44;;;;;;;15.93;4.80;;;19.50;93.10;;;;;;4942293;29;20039;-64
2022/05/09 10:30:24;;;;;;;12.63;4.60;;;19.50;91.40;;;;;;4948924;28;20146;-64
2022/05/09 10:32:57;;;;;;;14.57;4.50;;;19.40;92.40;;;;;;4931749;28;20183;-64
2022/05/09 10:35:27;;;;;;;16.83;5.25;;;19.40;91.70;;;;;;4944128;29;20079;-64
2022/05/09 10:38:12;;;;;;;12.23;4.20;;;19.50;93.10;;;;;;4949323;28;20514;-64
2022/05/09 10:40:42;;;;;;;9.68;4.15;;;19.70;89.90;;;;;;4942220;28;20046;-64
2022/05/09 10:43:41;;;;;;;14.02;4.70;;;19.60;91.40;;;;;;4925954;28;20524;-64
2022/05/09 10:46:12;;;;;;;17.13;4.43;;;19.60;87.40;;;;;;4939633;29;20186;-64
2022/05/09 10:49:03;;;;;;;11.95;4.40;;;19.70;81.60;;;;;;4940182;28;20043;-64
2022/05/09 10:51:39;;;;;;;12.25;4.93;;;19.90;90.90;;;;;;4947548;28;20039;-64
2022/05/09 10:54:33;;;;;;;10.70;4.20;;;20.20;91.10;;;;;;4958227;28;20048;-64
2022/05/09 10:57:22;;;;;;;12.98;4.30;;;20.20;84.60;;;;;;4942251;29;20118;-64
2022/05/09 10:59:49;;;;;;;10.57;4.22;;;20.20;75.90;;;;;;4937689;28;20517;-64
2022/05/09 11:02:25;;;;;;;10.40;4.15;;;20.40;91.00;;;;;;4934600;28;20130;-64
2022/05/09 11:04:51;;;;;;;10.35;4.13;;;20.60;79.90;;;;;;4943003;28;20052;-64
2022/05/09 11:07:45;;;;;;;10.88;3.67;;;20.60;90.60;;;;;;4939909;28;20049;-64
2022/05/09 11:10:48;;;;;;;6.65;3.60;;;20.60;69.80;;;;;;4942929;29;20039;-64
2022/05/09 11:13:25;;;;;;;12.63;4.07;;;20.50;64.80;;;;;;4942909;28;20039;-64
2022/05/09 11:16:18;;;;;;;11.98;4.47;;;20.70;80.80;;;;;;4948491;28;20054;-64
2022/05/09 11:19:02;;;;;;;11.98;3.97;;;20.50;69.30;;;;;;4948965;28;20047;-64
2022/05/09 11:21:49;;;;;;;10.82;4.10;;;20.70;85.30;;;;;;4946161;28;20617;-64
2022/05/09 11:24:29;;;;;;;9.18;3.80;;;20.70;79.50;;;;;;4930864;29;20047;-64
2022/05/09 11:27:41;;;;;;;10.23;3.90;;;20.70;67.90;;;;;;4946064;29;20141;-64
2022/05/09 11:30:30;;;;;;;6.70;3.92;;;20.80;74.30;;;;;;4922697;29;20580;-64
2022/05/09 11:33:14;;;;;;;10.68;4.50;;;20.90;84.30;;;;;;4940517;29;20039;-64
2022/05/09 11:35:41;;;;;;;11.95;4.07;;;21.30;79.30;;;;;;4933461;28;20054;-64
2022/05/09 11:38:30;;;;;;;9.65;3.75;;;21.40;83.50;;;;;;4942206;28;20039;-64
2022/05/09 11:41:18;;;;;;;11.93;4.10;;;21.50;67.30;;;;;;4946127;29;20051;-64
2022/05/09 11:44:13;;;;;;;9.70;4.05;;;21.50;67.50;;;;;;4934563;28;20067;-64
2022/05/09 11:47:05;;;;;;;10.52;3.85;;;21.50;62.40;;;;;;4936639;29;20048;-64
2022/05/09 11:49:49;;;;;;;13.95;3.90;;;21.60;66.80;;;;;;4943972;29;20158;-64
2022/05/09 11:52:25;;;;;;;17.02;4.18;;;21.70;69.80;;;;;;4927481;29;20044;-64
2022/05/09 11:54:53;;;;;;;11.55;4.28;;;21.60;68.20;;;;;;4928832;29;20240;-64
2022/05/09 11:57:26;;;;;;;10.02;3.55;;;21.60;66.90;;;;;;4937771;28;20035;-64
2022/05/09 11:59:56;;;;;;;12.93;4.20;;;21.70;66.10;;;;;;4948111;28;20039;-64
2022/05/09 12:02:50;;;;;;;7.38;3.40;;;22.00;74.90;;;;;;4962344;28;20043;-64
2022/05/09 12:05:29;;;;;;;7.13;3.50;;;22.10;65.30;;;;;;4931482;29;20047;-64
2022/05/09 12:08:14;;;;;;;15.75;3.90;;;22.40;66.50;;;;;;4934832;29;20046;-64
2022/05/09 12:10:43;;;;;;;10.52;3.80;;;22.60;67.90;;;;;;4935338;29;20035;-64
2022/05/09 12:13:38;;;;;;;8.18;3.70;;;22.80;70.10;;;;;;4929419;28;20075;-64
2022/05/09 12:16:04;;;;;;;9.95;3.70;;;22.80;58.80;;;;;;4938808;29;20035;-64
2022/05/09 12:18:55;;;;;;;8.98;3.63;;;22.90;64.70;;;;;;4936392;28;20039;-64
2022/05/09 12:21:31;;;;;;;5.38;2.90;;;23.00;59.20;;;;;;4930923;29;20048;-64
2022/05/09 12:24:18;;;;;;;6.10;3.20;;;22.90;63.20;;;;;;4933039;29;20039;-64
2022/05/09 12:26:46;;;;;;;8.63;3.15;;;22.80;57.10;;;;;;4941020;29;20126;-64
2022/05/09 12:29:15;;;;;;;10.98;3.67;;;22.80;59.40;;;;;;4945554;28;20474;-64
2022/05/09 12:31:47;;;;;;;7.07;3.25;;;22.90;61.30;;;;;;4951313;28;20047;-64
2022/05/09 12:34:21;;;;;;;10.05;3.40;;;23.00;59.30;;;;;;4951044;28;20094;-64
2022/05/09 12:36:47;;;;;;;6.57;3.20;;;23.00;58.60;;;;;;4940191;28;20102;-64
2022/05/09 12:39:24;;;;;;;11.98;3.85;;;23.20;62.70;;;;;;4944841;28;20039;-64
2022/05/09 12:41:53;;;;;;;8.02;3.53;;;23.40;61.20;;;;;;4951550;28;20074;-64
2022/05/09 12:44:39;;;;;;;8.40;3.60;;;23.50;58.70;;;;;;4943452;28;20039;-64
2022/05/09 12:47:08;;;;;;;6.70;3.03;;;23.70;63.30;;;;;;4939507;28;20086;-64
2022/05/09 12:49:36;;;;;;;11.90;3.40;;;23.70;59.10;;;;;;4928012;28;20110;-64
2022/05/09 12:52:03;;;;;;;9.05;3.70;;;23.60;58.50;;;;;;4944189;29;20071;-64
2022/05/09 12:54:30;;;;;;;11.13;3.30;;;23.50;57.40;;;;;;4943519;29;20099;-64
2022/05/09 12:56:59;;;;;;;7.55;3.50;;;23.40;56.20;;;;;;4950274;29;20043;-64
2022/05/09 12:59:29;;;;;;;9.30;3.47;;;23.40;55.40;;;;;;4951781;28;20502;-64
2022/05/09 13:02:00;;;;;;;6.18;3.17;;;23.50;54.60;;;;;;4939738;28;20110;-64
2022/05/09 13:04:34;;;;;;;8.27;3.75;;;23.30;52.90;;;;;;4938932;29;20556;-64
2022/05/09 13:07:06;;;;;;;9.30;3.90;;;23.50;53.70;;;;;;4950898;28;20066;-64
2022/05/09 13:09:35;;;;;;;12.13;3.70;;;23.70;54.60;;;;;;4951305;28;20054;-64
2022/05/09 13:12:05;;;;;;;8.57;3.78;;;24.00;54.30;;;;;;4942922;28;20082;-64
2022/05/09 13:14:52;;;;;;;7.43;3.27;;;24.50;53.60;;;;;;4947023;28;20047;-65